Time;durP1;ratioP1;P1;durP2;ratioP2;P2;SDS_P1;SDS_P2;PMS_P1;PMS_P2;Temp;Humidity;BMP_temperature;BMP_pressure;BME280_temperature;BME280_humidity;BME280_pressure;Samples;Min_cycle;Max_cycle;Signal;HPM_P1;HPM_P2
2022/04/22 00:01:36;;;;;;;9.53;7.87;;;9.90;99.90;;;;;;7371271;19;20405;-80
2022/04/22 00:04:03;;;;;;;8.13;6.95;;;9.90;99.90;;;;;;7376577;19;20770;-80
2022/04/22 00:06:29;;;;;;;10.32;7.45;;;9.90;99.90;;;;;;7377764;19;20344;-79
2022/04/22 00:08:55;;;;;;;9.38;7.80;;;9.90;99.90;;;;;;7375073;19;21183;-80
2022/04/22 00:11:30;;;;;;;9.07;7.78;;;9.90;99.90;;;;;;7373416;19;20358;-80
2022/04/22 00:14:00;;;;;;;9.02;7.72;;;9.90;99.90;;;;;;7374407;19;20341;-80
2022/04/22 00:16:30;;;;;;;9.15;7.40;;;9.90;99.90;;;;;;7372590;19;20329;-80
2022/04/22 00:18:56;;;;;;;9.98;7.47;;;9.90;99.90;;;;;;7377035;19;20344;-78
2022/04/22 00:21:21;;;;;;;9.32;7.50;;;9.80;99.90;;;;;;7376348;19;20328;-78
2022/04/22 00:23:49;;;;;;;8.17;7.37;;;9.90;99.90;;;;;;7379937;19;20333;-78
2022/04/22 00:26:14;;;;;;;9.57;7.37;;;9.80;99.90;;;;;;7373863;19;20325;-81
2022/04/22 00:28:40;;;;;;;8.38;7.00;;;9.80;99.90;;;;;;7374703;19;20324;-79
2022/04/22 00:31:06;;;;;;;9.95;7.65;;;9.80;99.90;;;;;;7369923;19;20686;-80
2022/04/22 00:33:31;;;;;;;7.63;6.80;;;9.80;99.90;;;;;;7369085;19;20337;-79
2022/04/22 00:35:57;;;;;;;8.47;7.03;;;9.80;99.90;;;;;;7375228;19;20316;-79
2022/04/22 00:38:22;;;;;;;9.63;7.20;;;9.70;99.90;;;;;;7374597;19;20365;-79
2022/04/22 00:40:48;;;;;;;8.20;7.10;;;9.70;99.90;;;;;;7372210;19;20361;-79
2022/04/22 00:43:14;;;;;;;7.65;6.80;;;9.70;99.90;;;;;;7372025;19;20323;-79
2022/04/22 00:45:41;;;;;;;9.25;7.13;;;9.70;99.90;;;;;;7372252;19;20333;-79
2022/04/22 00:48:06;;;;;;;7.90;6.80;;;9.80;99.90;;;;;;7372778;19;20343;-79
2022/04/22 00:50:32;;;;;;;8.23;6.80;;;9.80;99.90;;;;;;7373029;19;20317;-80
2022/04/22 00:52:58;;;;;;;7.93;6.17;;;9.80;99.90;;;;;;7372105;19;20348;-79
2022/04/22 00:55:23;;;;;;;8.35;6.60;;;9.80;99.90;;;;;;7368014;19;20357;-79
2022/04/22 00:57:49;;;;;;;8.37;6.77;;;9.80;99.90;;;;;;7373522;19;21149;-79
2022/04/22 01:00:15;;;;;;;8.30;6.97;;;9.80;99.90;;;;;;7370739;19;20373;-79
2022/04/22 01:02:40;;;;;;;10.07;7.53;;;9.80;99.90;;;;;;7372694;19;20316;-79
2022/04/22 01:10:37;;;;;;;8.43;7.05;;;9.60;99.90;;;;;;7270002;19;2004437;-78
2022/04/22 01:13:03;;;;;;;9.52;7.22;;;9.60;99.90;;;;;;7362203;19;20329;-79
2022/04/22 01:15:28;;;;;;;7.17;6.40;;;9.60;99.90;;;;;;7361047;19;20432;-79
2022/04/22 01:17:54;;;;;;;8.77;7.20;;;9.70;99.90;;;;;;7363956;19;20511;-81
2022/04/22 01:20:20;;;;;;;8.23;7.03;;;9.70;99.90;;;;;;7354961;19;20329;-82
2022/04/22 01:22:45;;;;;;;7.47;6.67;;;9.70;99.90;;;;;;7353104;19;20341;-80
2022/04/22 01:25:11;;;;;;;9.55;6.80;;;9.70;99.90;;;;;;7363885;19;20979;-78
2022/04/22 01:27:37;;;;;;;8.07;7.27;;;9.70;99.90;;;;;;7373570;19;20673;-80
2022/04/22 01:30:06;;;;;;;7.45;6.57;;;9.60;99.90;;;;;;7372116;19;20346;-80
2022/04/22 01:32:31;;;;;;;6.82;6.13;;;9.60;99.90;;;;;;7368451;19;20375;-79
2022/04/22 01:35:04;;;;;;;7.73;6.53;;;9.60;99.90;;;;;;7373255;19;20411;-80
2022/04/22 01:37:33;;;;;;;8.02;6.65;;;9.70;99.90;;;;;;7356967;19;20349;-80
2022/04/22 01:39:58;;;;;;;7.43;6.43;;;9.70;99.90;;;;;;7372320;19;20327;-79
2022/04/22 01:42:25;;;;;;;7.70;6.63;;;9.70;99.90;;;;;;7367895;19;20384;-79
2022/04/22 01:44:50;;;;;;;7.70;6.28;;;9.70;99.90;;;;;;7372152;19;20355;-79
2022/04/22 01:47:16;;;;;;;7.60;6.80;;;9.70;99.90;;;;;;7373402;19;20407;-79
2022/04/22 01:49:42;;;;;;;7.78;6.88;;;9.80;99.90;;;;;;7373115;19;20380;-82
2022/04/22 01:52:08;;;;;;;7.80;7.00;;;9.70;99.90;;;;;;7371325;19;20362;-79
2022/04/22 01:54:33;;;;;;;8.05;6.88;;;9.60;99.90;;;;;;7385726;19;20896;-80
2022/04/22 01:56:59;;;;;;;10.33;6.90;;;9.60;99.90;;;;;;7383097;19;20357;-80
2022/04/22 01:59:24;;;;;;;7.55;6.40;;;9.60;99.90;;;;;;7383353;19;20878;-80
2022/04/22 02:01:50;;;;;;;6.57;5.90;;;9.70;99.90;;;;;;7378079;19;20345;-80
2022/04/22 02:04:15;;;;;;;7.03;6.32;;;9.70;99.90;;;;;;7385580;19;20365;-79
2022/04/22 02:06:41;;;;;;;7.80;6.67;;;9.70;99.90;;;;;;7379106;19;20355;-79
2022/04/22 02:09:06;;;;;;;7.55;6.53;;;9.70;99.90;;;;;;7376155;19;20356;-78
2022/04/22 02:11:32;;;;;;;6.67;5.80;;;9.70;99.90;;;;;;7378350;19;20368;-79
2022/04/22 02:13:58;;;;;;;6.80;6.10;;;9.70;99.90;;;;;;7378277;19;20413;-79
2022/04/22 02:16:24;;;;;;;6.67;5.97;;;9.70;99.90;;;;;;7373810;19;20747;-79
2022/04/22 02:18:49;;;;;;;7.93;6.57;;;9.70;99.90;;;;;;7380921;19;20803;-80
2022/04/22 02:21:15;;;;;;;7.80;6.60;;;9.70;99.90;;;;;;7376767;19;20336;-79
2022/04/22 02:23:41;;;;;;;7.97;6.95;;;9.60;99.90;;;;;;7373661;19;20308;-79
2022/04/22 02:26:06;;;;;;;7.33;6.57;;;9.50;99.90;;;;;;7378236;19;20357;-79
2022/04/22 02:28:32;;;;;;;7.93;7.03;;;9.50;99.90;;;;;;7376898;19;20356;-79
2022/04/22 02:31:18;;;;;;;8.20;6.90;;;9.50;99.90;;;;;;7379707;19;20323;-79
2022/04/22 02:33:43;;;;;;;7.18;6.25;;;9.60;99.90;;;;;;7375885;19;20361;-79
2022/04/22 02:36:09;;;;;;;6.80;6.07;;;9.60;99.90;;;;;;7376401;19;20337;-80
2022/04/22 02:38:35;;;;;;;7.73;6.70;;;9.60;99.90;;;;;;7377108;19;20336;-79
2022/04/22 02:46:30;;;;;;;7.40;6.67;;;9.60;99.90;;;;;;7377022;19;20736;-82
2022/04/22 02:48:57;;;;;;;8.23;6.45;;;9.60;99.90;;;;;;7379374;19;20341;-79
2022/04/22 02:51:23;;;;;;;7.00;6.30;;;9.60;99.90;;;;;;7374864;19;20586;-79
2022/04/22 02:53:49;;;;;;;8.48;6.97;;;9.60;99.90;;;;;;7372609;19;20348;-78
2022/04/22 02:56:15;;;;;;;7.67;6.40;;;9.60;99.90;;;;;;7377430;19;20345;-79
2022/04/22 02:58:40;;;;;;;7.90;6.40;;;9.60;99.90;;;;;;7380376;19;20391;-80
2022/04/22 03:01:06;;;;;;;7.63;6.47;;;9.60;99.90;;;;;;7376153;19;20372;-80
2022/04/22 03:03:32;;;;;;;7.70;6.50;;;9.60;99.90;;;;;;7375965;19;20337;-80
2022/04/22 03:05:58;;;;;;;9.57;8.40;;;9.60;99.90;;;;;;7377966;19;20321;-79
2022/04/22 03:08:23;;;;;;;10.25;8.68;;;9.50;99.90;;;;;;7376804;19;20355;-80
2022/04/22 03:10:49;;;;;;;8.00;7.20;;;9.30;99.90;;;;;;7376963;19;20329;-84
2022/04/22 03:13:15;;;;;;;8.77;7.63;;;9.30;99.90;;;;;;7373508;19;20373;-79
2022/04/22 03:15:41;;;;;;;7.13;6.25;;;9.30;99.90;;;;;;7374793;19;20347;-79
2022/04/22 03:18:08;;;;;;;7.70;6.57;;;9.30;99.90;;;;;;7377070;19;20413;-80
2022/04/22 03:20:33;;;;;;;7.97;7.18;;;9.40;99.90;;;;;;7365181;19;20355;-80
2022/04/22 03:22:59;;;;;;;8.83;7.20;;;9.40;99.90;;;;;;7367311;19;21025;-79
2022/04/22 03:25:25;;;;;;;8.32;6.93;;;9.50;99.90;;;;;;7375946;19;20352;-79
2022/04/22 03:27:51;;;;;;;9.38;6.63;;;9.30;99.90;;;;;;7377967;19;20345;-78
2022/04/22 03:30:17;;;;;;;9.40;6.82;;;9.30;99.90;;;;;;7375088;19;20309;-79
2022/04/22 03:32:43;;;;;;;8.75;7.28;;;9.30;99.90;;;;;;7370375;19;20359;-79
2022/04/22 03:35:09;;;;;;;9.55;7.70;;;9.30;99.90;;;;;;7373375;19;20329;-80
2022/04/22 03:37:34;;;;;;;12.23;8.30;;;9.30;99.90;;;;;;7376959;19;20324;-79
2022/04/22 03:40:00;;;;;;;9.43;7.97;;;9.20;99.90;;;;;;7375496;19;20340;-78
2022/04/22 03:42:27;;;;;;;8.77;7.87;;;9.20;99.90;;;;;;7374458;19;20753;-79
2022/04/22 03:44:53;;;;;;;8.88;7.80;;;9.20;99.90;;;;;;7380044;19;20774;-84
2022/04/22 03:47:19;;;;;;;9.83;7.90;;;9.30;99.90;;;;;;7376965;19;20344;-78
2022/04/22 03:49:45;;;;;;;9.60;7.10;;;9.20;99.90;;;;;;7374476;19;20324;-79
2022/04/22 03:52:10;;;;;;;8.57;7.67;;;9.20;99.90;;;;;;7375786;19;20348;-79
2022/04/22 03:54:36;;;;;;;11.10;7.87;;;9.20;99.90;;;;;;7369943;19;20333;-79
2022/04/22 03:59:47;;;;;;;10.05;7.68;;;9.10;99.90;;;;;;7276788;19;2004382;-79
2022/04/22 04:02:12;;;;;;;9.55;8.02;;;9.10;99.90;;;;;;7378018;19;20353;-79
2022/04/22 04:04:38;;;;;;;9.70;8.07;;;9.10;99.90;;;;;;7378450;19;20316;-79
2022/04/22 04:07:04;;;;;;;8.93;7.93;;;9.10;99.90;;;;;;7375210;19;21295;-79
2022/04/22 04:17:42;;;;;;;8.35;7.47;;;9.10;99.90;;;;;;7383237;19;21015;-81
2022/04/22 04:25:39;;;;;;;9.27;7.95;;;9.20;99.90;;;;;;7378486;19;20370;-79
2022/04/22 04:28:09;;;;;;;10.55;7.70;;;9.20;99.90;;;;;;7378535;19;20296;-82
2022/04/22 04:30:38;;;;;;;9.05;7.60;;;9.20;99.90;;;;;;7379691;19;20768;-79
2022/04/22 04:33:05;;;;;;;9.27;7.85;;;9.20;99.90;;;;;;7375269;19;20337;-80
2022/04/22 04:35:30;;;;;;;10.23;8.25;;;9.10;99.90;;;;;;7373683;19;20389;-79
2022/04/22 04:37:56;;;;;;;10.03;8.77;;;9.10;99.90;;;;;;7377127;19;20316;-79
2022/04/22 04:40:22;;;;;;;10.43;8.65;;;9.10;99.90;;;;;;7374114;19;20359;-79
2022/04/22 04:42:47;;;;;;;9.13;7.73;;;9.10;99.90;;;;;;7370942;19;21193;-79
2022/04/22 04:45:13;;;;;;;9.32;7.75;;;9.10;99.90;;;;;;7374505;19;20316;-79
2022/04/22 04:47:41;;;;;;;9.20;8.20;;;9.10;99.90;;;;;;7375434;19;20344;-79
2022/04/22 04:50:08;;;;;;;9.05;8.10;;;9.10;99.90;;;;;;7374284;19;20340;-82
2022/04/22 04:52:34;;;;;;;10.57;8.13;;;9.10;99.90;;;;;;7375737;19;20348;-81
2022/04/22 04:55:00;;;;;;;10.23;8.53;;;9.20;99.90;;;;;;7378996;19;20333;-80
2022/04/22 04:57:26;;;;;;;10.65;7.85;;;9.20;99.90;;;;;;7381977;19;20308;-79
2022/04/22 04:59:54;;;;;;;8.90;7.95;;;9.30;99.90;;;;;;7379689;19;20308;-80
2022/04/22 05:02:20;;;;;;;8.43;7.30;;;9.30;99.90;;;;;;7369737;19;20336;-81
2022/04/22 05:04:45;;;;;;;9.60;8.27;;;9.30;99.90;;;;;;7374895;19;20340;-78
2022/04/22 05:07:11;;;;;;;10.17;7.90;;;9.30;99.90;;;;;;7375426;19;20340;-80
2022/04/22 05:09:36;;;;;;;10.95;8.48;;;9.30;99.90;;;;;;7377173;19;20384;-80
2022/04/22 05:12:03;;;;;;;11.27;8.27;;;9.30;99.90;;;;;;7377604;19;20304;-81
2022/04/22 05:14:28;;;;;;;9.57;8.27;;;9.30;99.90;;;;;;7376018;19;20331;-81
2022/04/22 05:16:56;;;;;;;8.70;7.68;;;9.20;99.90;;;;;;7377968;19;20365;-80
2022/04/22 05:19:22;;;;;;;9.82;8.57;;;9.20;99.90;;;;;;7380044;19;20316;-79
2022/04/22 05:21:49;;;;;;;9.23;7.97;;;9.20;99.90;;;;;;7373193;19;20381;-80
2022/04/22 05:24:15;;;;;;;8.68;7.78;;;9.10;99.90;;;;;;7377469;19;20339;-79
2022/04/22 05:26:40;;;;;;;9.50;8.17;;;9.20;99.90;;;;;;7383207;19;20305;-80
2022/04/22 05:32:36;;;;;;;10.10;8.05;;;9.20;99.90;;;;;;7395098;19;20308;-81
2022/04/22 05:34:35;;;;;;;9.75;7.90;;;9.30;99.90;;;;;;7383973;19;20321;-80
2022/04/22 05:37:01;;;;;;;9.85;8.70;;;9.20;99.90;;;;;;7382443;19;20408;-80
2022/04/22 05:39:26;;;;;;;11.63;9.30;;;9.10;99.90;;;;;;7386666;19;20340;-80
2022/04/22 05:41:52;;;;;;;10.70;8.73;;;9.10;99.90;;;;;;7377350;19;20365;-79
2022/04/22 05:44:17;;;;;;;11.13;9.60;;;9.10;99.90;;;;;;7383625;19;20348;-81
2022/04/22 05:46:43;;;;;;;11.63;9.50;;;9.10;99.90;;;;;;7381089;19;20332;-80
2022/04/22 05:49:08;;;;;;;9.55;8.55;;;9.10;99.90;;;;;;7381786;19;20682;-80
2022/04/22 05:51:34;;;;;;;12.03;9.07;;;9.20;99.90;;;;;;7381021;19;20357;-80
2022/04/22 05:54:00;;;;;;;11.23;8.80;;;9.20;99.90;;;;;;7380321;19;20323;-80
2022/04/22 05:56:25;;;;;;;10.63;9.07;;;9.30;99.90;;;;;;7381947;19;21122;-81
2022/04/22 05:58:52;;;;;;;12.87;10.33;;;9.30;99.90;;;;;;7383063;19;20349;-79
2022/04/22 06:01:17;;;;;;;12.38;10.00;;;9.40;99.90;;;;;;7381084;19;20903;-82
2022/04/22 06:03:43;;;;;;;10.10;9.00;;;9.40;99.90;;;;;;7383231;19;20446;-81
2022/04/22 06:06:08;;;;;;;11.63;9.65;;;9.30;99.90;;;;;;7381342;19;20357;-81
2022/04/22 06:11:18;;;;;;;10.07;9.00;;;9.50;99.90;;;;;;7376333;19;20350;-80
2022/04/22 06:13:47;;;;;;;11.88;9.20;;;9.70;99.90;;;;;;7381861;19;20328;-83
2022/04/22 06:16:12;;;;;;;10.43;8.52;;;9.80;99.90;;;;;;7383968;19;21054;-80
2022/04/22 06:18:41;;;;;;;11.23;9.07;;;9.80;99.90;;;;;;7383007;19;20476;-83
2022/04/22 06:21:06;;;;;;;11.35;9.77;;;9.90;99.90;;;;;;7384169;19;20349;-77
2022/04/22 06:23:32;;;;;;;12.20;9.73;;;10.00;99.90;;;;;;7380000;19;20363;-84
2022/04/22 06:25:57;;;;;;;12.02;9.68;;;10.00;99.90;;;;;;7385957;19;20344;-81
2022/04/22 06:28:24;;;;;;;11.43;8.97;;;10.00;99.90;;;;;;7383233;19;20329;-84
2022/04/22 06:30:51;;;;;;;9.18;8.15;;;10.10;99.90;;;;;;7381188;19;20336;-87
2022/04/22 06:33:18;;;;;;;10.52;8.63;;;10.10;99.90;;;;;;7383192;19;20341;-84
2022/04/22 06:35:44;;;;;;;9.50;8.05;;;10.20;99.90;;;;;;7384925;19;20322;-83
2022/04/22 06:38:09;;;;;;;10.68;8.13;;;10.30;99.90;;;;;;7386256;19;20333;-83
2022/04/22 06:46:04;;;;;;;10.45;9.00;;;10.40;99.90;;;;;;7290607;19;2004364;-91
2022/04/22 06:48:30;;;;;;;9.93;8.30;;;10.40;99.90;;;;;;7383680;19;20435;-81
2022/04/22 06:50:56;;;;;;;11.15;9.50;;;10.40;99.90;;;;;;7381658;19;20347;-80
2022/04/22 06:53:23;;;;;;;10.30;8.57;;;10.40;99.90;;;;;;7375859;19;21287;-81
2022/04/22 06:55:48;;;;;;;9.30;8.40;;;10.40;99.90;;;;;;7376606;19;20428;-81
2022/04/22 06:58:15;;;;;;;10.60;8.63;;;10.50;99.90;;;;;;7382037;19;20349;-80
2022/04/22 07:00:41;;;;;;;10.70;8.93;;;10.50;99.90;;;;;;7381402;19;20313;-79
2022/04/22 07:03:08;;;;;;;10.57;9.10;;;10.60;99.90;;;;;;7378547;19;21282;-84
2022/04/22 07:05:34;;;;;;;10.15;8.73;;;10.60;99.90;;;;;;7380307;19;20356;-81
2022/04/22 07:08:03;;;;;;;9.93;8.50;;;10.70;99.90;;;;;;7381848;19;20333;-81
2022/04/22 07:10:35;;;;;;;9.40;7.80;;;10.70;99.90;;;;;;7385432;19;20352;-85
2022/04/22 07:13:01;;;;;;;8.40;7.47;;;10.80;99.90;;;;;;7374388;19;20344;-85
2022/04/22 07:15:27;;;;;;;9.82;8.27;;;10.90;99.90;;;;;;7380483;19;20348;-84
2022/04/22 07:17:53;;;;;;;11.03;9.00;;;11.00;99.90;;;;;;7379252;19;21277;-81
2022/04/22 07:20:19;;;;;;;10.70;8.70;;;11.00;99.90;;;;;;7380734;19;20333;-86
2022/04/22 07:22:45;;;;;;;11.70;8.77;;;10.90;99.90;;;;;;7381305;19;20304;-80
2022/04/22 07:25:11;;;;;;;12.13;10.02;;;10.90;99.90;;;;;;7384730;19;20344;-84
2022/04/22 07:27:38;;;;;;;10.82;8.85;;;10.90;99.90;;;;;;7385802;19;20340;-82
2022/04/22 07:30:06;;;;;;;8.68;7.78;;;10.90;99.90;;;;;;7381098;19;20395;-81
2022/04/22 07:32:37;;;;;;;9.63;7.88;;;11.00;99.90;;;;;;7382718;19;20361;-82
2022/04/22 07:35:05;;;;;;;11.87;9.23;;;11.00;99.90;;;;;;7383402;19;21000;-83
2022/04/22 07:37:32;;;;;;;12.10;9.57;;;11.10;99.90;;;;;;7385073;19;20439;-85
2022/04/22 07:39:57;;;;;;;10.82;9.27;;;11.10;99.90;;;;;;7382954;19;20416;-85
2022/04/22 07:42:23;;;;;;;12.07;9.40;;;11.10;99.90;;;;;;7381472;19;20361;-80
2022/04/22 07:47:34;;;;;;;11.77;9.10;;;11.00;99.90;;;;;;7281270;19;2004352;-82
2022/04/22 07:50:05;;;;;;;12.32;9.90;;;11.00;99.90;;;;;;7381184;19;20325;-84
2022/04/22 07:52:32;;;;;;;13.32;10.90;;;11.10;99.90;;;;;;7377867;19;20344;-85
2022/04/22 07:54:57;;;;;;;12.00;9.97;;;11.10;99.90;;;;;;7380910;19;20349;-83
2022/04/22 07:57:23;;;;;;;12.75;9.57;;;11.10;99.90;;;;;;7381146;19;20436;-81
2022/04/22 07:59:49;;;;;;;13.50;10.20;;;11.10;99.90;;;;;;7379310;19;20356;-81
2022/04/22 08:02:15;;;;;;;13.15;10.90;;;11.10;99.90;;;;;;7377499;19;20458;-84
2022/04/22 08:04:41;;;;;;;11.32;9.15;;;11.10;99.90;;;;;;7378080;19;20316;-86
2022/04/22 08:07:07;;;;;;;10.53;8.90;;;11.10;99.90;;;;;;7379371;19;21301;-81
2022/04/22 08:09:33;;;;;;;14.23;11.80;;;11.20;99.90;;;;;;7377156;19;20768;-82
2022/04/22 08:12:00;;;;;;;11.20;9.25;;;11.30;99.90;;;;;;7370388;19;20373;-83
2022/04/22 08:14:27;;;;;;;10.80;9.57;;;11.40;99.90;;;;;;7376596;19;20332;-81
2022/04/22 08:16:56;;;;;;;13.00;10.20;;;11.50;99.90;;;;;;7375725;19;20348;-83
2022/04/22 08:19:21;;;;;;;12.07;10.57;;;11.60;99.90;;;;;;7375951;19;20451;-81
2022/04/22 08:21:47;;;;;;;13.27;10.00;;;11.60;99.90;;;;;;7370621;19;20424;-83
2022/04/22 08:24:12;;;;;;;14.68;10.32;;;11.60;99.90;;;;;;7376282;19;20328;-81
2022/04/22 08:26:38;;;;;;;13.67;11.30;;;11.60;99.90;;;;;;7374199;19;20659;-81
2022/04/22 08:29:04;;;;;;;13.02;10.50;;;11.60;99.90;;;;;;7377051;19;20321;-80
2022/04/22 08:31:29;;;;;;;12.60;10.10;;;11.70;99.90;;;;;;7373440;19;20327;-84
2022/04/22 08:33:58;;;;;;;12.18;10.77;;;11.90;99.90;;;;;;7373933;19;20715;-82
2022/04/22 08:36:25;;;;;;;11.85;10.27;;;12.00;99.90;;;;;;7375373;19;20328;-81
2022/04/22 08:38:50;;;;;;;15.70;11.25;;;12.10;99.90;;;;;;7377603;19;20336;-80
2022/04/22 08:41:17;;;;;;;13.13;10.90;;;12.30;99.90;;;;;;7376285;19;20361;-80
2022/04/22 08:43:42;;;;;;;15.80;11.93;;;12.40;99.90;;;;;;7378498;19;20336;-80
2022/04/22 08:49:58;;;;;;;14.30;11.20;;;12.60;99.90;;;;;;7384930;19;20337;-83
2022/04/22 08:51:43;;;;;;;16.60;12.15;;;12.70;99.90;;;;;;7284872;19;2004379;-82
2022/04/22 08:54:09;;;;;;;14.57;11.30;;;12.80;99.90;;;;;;7387587;19;20624;-81
2022/04/22 08:56:35;;;;;;;13.37;11.10;;;12.90;99.90;;;;;;7379913;19;20442;-81
2022/04/22 08:59:01;;;;;;;14.90;12.27;;;12.90;99.90;;;;;;7381837;19;20308;-81
2022/04/22 09:01:27;;;;;;;14.75;11.68;;;12.90;99.90;;;;;;7378605;19;20684;-83
2022/04/22 09:03:53;;;;;;;13.53;11.40;;;13.10;99.90;;;;;;7390876;19;20345;-82
2022/04/22 09:06:20;;;;;;;17.45;12.50;;;13.10;99.90;;;;;;7387430;19;20326;-81
2022/04/22 09:08:46;;;;;;;14.97;10.90;;;13.20;99.90;;;;;;7387684;19;20336;-82
2022/04/22 09:11:12;;;;;;;14.18;11.98;;;13.30;99.90;;;;;;7387047;19;20332;-80
2022/04/22 09:13:37;;;;;;;13.03;10.93;;;13.40;99.90;;;;;;7387210;19;20352;-82
2022/04/22 09:16:06;;;;;;;15.17;12.43;;;13.50;99.90;;;;;;7381891;19;20351;-81
2022/04/22 09:18:35;;;;;;;14.90;11.93;;;13.50;99.90;;;;;;7385436;19;20371;-83
2022/04/22 09:21:06;;;;;;;17.40;12.75;;;13.40;99.90;;;;;;7382069;19;20352;-81
2022/04/22 09:23:35;;;;;;;18.40;13.70;;;13.40;99.90;;;;;;7280405;19;2004371;-82
2022/04/22 09:26:02;;;;;;;15.48;12.30;;;13.30;99.90;;;;;;7385290;19;20340;-81
2022/04/22 09:28:28;;;;;;;15.13;12.75;;;13.30;99.90;;;;;;7386927;19;20325;-80
2022/04/22 09:31:01;;;;;;;16.15;12.73;;;13.30;99.90;;;;;;7385201;19;20320;-80
2022/04/22 09:33:44;;;;;;;16.50;13.33;;;13.30;99.90;;;;;;7378157;19;20356;-81
2022/04/22 09:45:08;;;;;;;17.35;13.95;;;13.20;99.90;;;;;;7281773;19;2004336;-84
2022/04/22 09:47:35;;;;;;;16.27;13.35;;;13.20;99.90;;;;;;7382143;19;20345;-80
2022/04/22 09:50:11;;;;;;;15.77;13.77;;;13.20;99.90;;;;;;7383469;19;20875;-81
2022/04/22 09:52:47;;;;;;;16.88;14.13;;;13.20;99.90;;;;;;7380090;19;20464;-81
2022/04/22 09:55:16;;;;;;;17.47;13.83;;;13.10;99.90;;;;;;7380140;19;20345;-79
2022/04/22 09:57:58;;;;;;;18.73;14.20;;;13.10;99.90;;;;;;7382363;19;20320;-80
2022/04/22 10:00:29;;;;;;;16.92;13.63;;;13.10;99.90;;;;;;7280322;19;2004440;-80
2022/04/22 10:02:54;;;;;;;16.40;13.63;;;13.10;99.90;;;;;;7386295;19;20332;-79
2022/04/22 10:05:24;;;;;;;15.23;12.80;;;13.00;99.90;;;;;;7379107;19;20357;-80
2022/04/22 10:07:55;;;;;;;15.48;12.60;;;12.90;99.90;;;;;;7382541;19;20343;-81
2022/04/22 10:10:23;;;;;;;16.85;13.38;;;12.90;99.90;;;;;;7384419;19;20328;-81
2022/04/22 10:12:49;;;;;;;14.23;12.63;;;12.70;99.90;;;;;;7384980;19;20313;-80
2022/04/22 10:15:15;;;;;;;16.48;13.05;;;12.60;99.90;;;;;;7378973;19;20337;-83
2022/04/22 10:17:43;;;;;;;16.92;13.20;;;12.70;99.90;;;;;;7385074;19;20348;-84
2022/04/22 10:20:09;;;;;;;15.40;12.93;;;12.60;99.90;;;;;;7381190;19;26126;-80
2022/04/22 10:22:36;;;;;;;14.83;12.77;;;12.50;99.90;;;;;;7382971;19;20372;-80
2022/04/22 10:25:07;;;;;;;16.83;13.15;;;12.70;99.90;;;;;;7378524;19;20352;-80
2022/04/22 10:27:36;;;;;;;15.52;12.65;;;12.80;99.90;;;;;;7382617;19;20317;-81
2022/04/22 10:30:02;;;;;;;17.63;14.10;;;12.80;99.90;;;;;;7385101;19;20464;-80
2022/04/22 10:32:28;;;;;;;16.07;13.43;;;12.80;99.90;;;;;;7380435;19;20674;-81
2022/04/22 10:35:00;;;;;;;14.18;12.27;;;12.90;99.90;;;;;;7381949;19;20317;-82
2022/04/22 10:37:26;;;;;;;16.93;14.13;;;13.00;99.90;;;;;;7388644;19;20347;-80
2022/04/22 10:39:56;;;;;;;15.75;12.43;;;12.90;99.90;;;;;;7382238;19;20356;-80
2022/04/22 10:42:52;;;;;;;16.73;13.77;;;12.90;99.90;;;;;;7380831;19;20356;-81
2022/04/22 10:48:25;;;;;;;15.73;12.80;;;12.60;99.90;;;;;;7281505;19;2004465;-81
2022/04/22 10:51:00;;;;;;;15.43;12.83;;;12.70;99.90;;;;;;7279670;19;2004631;-83
2022/04/22 10:53:27;;;;;;;16.10;13.30;;;12.50;99.90;;;;;;7378047;19;20348;-81
2022/04/22 10:55:53;;;;;;;15.70;13.77;;;12.50;99.90;;;;;;7382116;19;20351;-80
2022/04/22 10:58:19;;;;;;;18.35;13.80;;;12.50;99.90;;;;;;7384363;19;20673;-81
2022/04/22 11:00:55;;;;;;;15.80;13.15;;;12.30;99.90;;;;;;7383420;19;20320;-83
2022/04/22 11:03:23;;;;;;;16.88;13.90;;;12.30;99.90;;;;;;7278726;19;2016325;-81
2022/04/22 11:05:59;;;;;;;13.17;11.77;;;12.30;99.90;;;;;;7385039;19;20335;-81
2022/04/22 11:08:39;;;;;;;17.98;14.25;;;12.40;99.90;;;;;;7382648;19;20328;-83
2022/04/22 11:11:13;;;;;;;16.83;13.05;;;12.40;99.90;;;;;;7383438;19;20329;-84
2022/04/22 11:13:46;;;;;;;15.48;12.25;;;12.40;99.90;;;;;;7376875;19;20721;-84
2022/04/22 11:16:33;;;;;;;15.88;13.13;;;12.50;99.90;;;;;;7379605;19;20349;-82
2022/04/22 11:19:22;;;;;;;17.30;14.02;;;12.70;99.90;;;;;;7383122;19;20691;-79
2022/04/22 11:21:53;;;;;;;15.35;13.60;;;12.80;99.90;;;;;;7276125;19;2004388;-83
2022/04/22 11:24:28;;;;;;;16.73;13.50;;;12.80;99.90;;;;;;7382493;19;20324;-81
2022/04/22 11:27:06;;;;;;;18.38;14.63;;;12.90;99.90;;;;;;7281506;19;2004462;-78
2022/04/22 11:29:31;;;;;;;16.13;13.10;;;13.00;99.90;;;;;;7387343;19;20321;-80
2022/04/22 11:32:03;;;;;;;16.77;13.55;;;13.20;99.90;;;;;;7379765;19;20989;-77
2022/04/22 11:34:53;;;;;;;16.85;13.38;;;13.40;99.90;;;;;;7380164;19;20308;-78
2022/04/22 11:37:20;;;;;;;16.95;14.40;;;13.50;99.90;;;;;;7383549;19;20440;-79
2022/04/22 11:39:49;;;;;;;17.33;13.13;;;13.60;99.90;;;;;;7381359;19;20398;-78
2022/04/22 11:42:17;;;;;;;15.50;13.83;;;13.60;99.90;;;;;;7379422;19;20343;-77
2022/04/22 11:45:04;;;;;;;18.27;13.57;;;13.70;99.90;;;;;;7380128;19;20303;-80
2022/04/22 11:47:30;;;;;;;16.73;12.82;;;13.90;99.90;;;;;;7279380;19;2004181;-80
2022/04/22 11:49:56;;;;;;;16.93;13.07;;;14.10;99.90;;;;;;7381672;19;21028;-86
2022/04/22 11:52:22;;;;;;;15.15;12.38;;;14.20;99.90;;;;;;7379294;19;20333;-81
2022/04/22 11:54:49;;;;;;;15.00;11.65;;;14.40;99.90;;;;;;7379330;19;20353;-80
2022/04/22 11:57:17;;;;;;;14.70;11.67;;;14.50;99.90;;;;;;7381391;19;20304;-79
2022/04/22 12:05:31;;;;;;;14.85;10.98;;;14.60;99.90;;;;;;7380418;19;20325;-82
2022/04/22 12:05:32;;;;;;;12.70;10.43;;;14.90;99.90;;;;;;7276146;19;2004469;-80
2022/04/22 12:08:05;;;;;;;11.87;9.83;;;15.10;99.90;;;;;;7378507;19;20336;-81
2022/04/22 12:10:32;;;;;;;13.45;11.35;;;14.90;99.90;;;;;;7279339;19;2004349;-81
2022/04/22 12:13:03;;;;;;;12.20;9.93;;;14.80;99.90;;;;;;7377690;19;20673;-79
2022/04/22 12:15:29;;;;;;;12.23;9.88;;;14.80;99.90;;;;;;7376482;19;20329;-81
2022/04/22 12:17:58;;;;;;;11.68;10.27;;;14.90;99.90;;;;;;7379169;19;21313;-79
2022/04/22 12:20:26;;;;;;;11.02;8.98;;;14.80;99.90;;;;;;7386893;19;20918;-78
2022/04/22 12:22:55;;;;;;;11.48;10.25;;;14.90;99.90;;;;;;7376080;19;20345;-77
2022/04/22 12:25:21;;;;;;;13.90;10.55;;;14.80;99.90;;;;;;7380421;19;20328;-79
2022/04/22 12:28:09;;;;;;;11.93;9.57;;;14.80;99.90;;;;;;7380735;19;20352;-81
2022/04/22 12:30:36;;;;;;;12.70;10.70;;;14.80;99.90;;;;;;7279050;19;2004191;-79
2022/04/22 12:33:02;;;;;;;13.23;10.68;;;14.80;99.90;;;;;;7376925;19;20308;-76
2022/04/22 12:35:27;;;;;;;13.10;10.60;;;14.90;99.90;;;;;;7380461;19;20349;-78
2022/04/22 12:37:54;;;;;;;12.00;10.70;;;14.90;99.90;;;;;;7381286;19;20382;-78
2022/04/22 12:40:21;;;;;;;13.43;10.38;;;14.90;99.90;;;;;;7384659;19;20313;-78
2022/04/22 12:42:47;;;;;;;12.97;10.20;;;15.00;99.90;;;;;;7381498;19;20357;-76
2022/04/22 12:53:41;;;;;;;12.77;10.88;;;15.00;99.90;;;;;;7276711;19;2004414;-78
2022/04/22 12:56:08;;;;;;;11.75;10.55;;;15.00;99.90;;;;;;7381819;19;20332;-78
2022/04/22 12:58:50;;;;;;;12.70;10.33;;;14.90;99.90;;;;;;7384675;19;20305;-78
2022/04/22 13:01:25;;;;;;;13.27;11.60;;;14.90;99.90;;;;;;7382096;19;21004;-79
2022/04/22 13:03:51;;;;;;;13.23;10.95;;;14.90;99.90;;;;;;7379731;19;20333;-78
2022/04/22 13:06:38;;;;;;;13.25;10.80;;;14.80;99.90;;;;;;7381642;19;20433;-82
2022/04/22 13:09:04;;;;;;;14.88;11.18;;;14.70;99.90;;;;;;7384507;19;20329;-80
2022/04/22 13:11:30;;;;;;;14.90;11.63;;;14.60;99.90;;;;;;7384691;19;20332;-80
2022/04/22 13:13:55;;;;;;;13.40;10.90;;;14.60;99.90;;;;;;7383813;19;20347;-79
2022/04/22 13:16:21;;;;;;;11.73;10.52;;;14.50;99.90;;;;;;7383570;19;20329;-80
2022/04/22 13:18:46;;;;;;;12.80;11.37;;;14.60;99.90;;;;;;7384485;19;20340;-83
2022/04/22 13:21:12;;;;;;;11.17;10.03;;;14.60;99.90;;;;;;7389975;19;20699;-77
2022/04/22 13:23:40;;;;;;;13.20;10.38;;;14.80;99.90;;;;;;7375341;19;20392;-79
2022/04/22 13:26:07;;;;;;;13.32;9.68;;;14.80;99.90;;;;;;7381188;19;20352;-77
2022/04/22 13:28:36;;;;;;;12.15;10.35;;;14.90;99.90;;;;;;7352987;19;20453;-80
2022/04/22 13:31:02;;;;;;;10.23;8.85;;;14.60;99.90;;;;;;7378837;19;20340;-83
2022/04/22 13:33:31;;;;;;;9.73;8.35;;;14.50;99.90;;;;;;7379843;19;20487;-85
2022/04/22 13:36:03;;;;;;;10.98;9.05;;;14.50;99.90;;;;;;7382724;19;20348;-81
2022/04/22 13:38:30;;;;;;;10.10;8.63;;;14.40;99.90;;;;;;7383305;19;20356;-80
2022/04/22 13:40:56;;;;;;;9.93;8.02;;;14.20;99.90;;;;;;7381791;19;20344;-80
2022/04/22 13:43:22;;;;;;;9.50;8.30;;;14.20;99.90;;;;;;7380736;19;20344;-76
2022/04/22 13:54:01;;;;;;;8.98;7.78;;;13.90;99.90;;;;;;7286663;19;2004458;-80
2022/04/22 13:56:27;;;;;;;9.82;8.82;;;14.00;99.90;;;;;;7389919;19;20392;-84
2022/04/22 13:58:52;;;;;;;8.97;8.00;;;14.00;99.90;;;;;;7387493;19;20353;-80